Time,TemperatureF,DewpointF,PressureIn,WindDirection,WindDirectionDegrees,WindSpeedMPH,WindSpeedGustMPH,Humidity,HourlyPrecipIn,Conditions,Clouds,dailyrainin,SoftwareType,DateUTC
2013-08-18 00:00:00,61.5,57.3,30.15,East,90,0.0,0.0,86,0.00,CLR,,0.00,WeatherDisplay:10.37,2013-08-18 04:00:00,
2013-08-18 00:05:00,61.3,57.1,30.15,East,90,0.0,0.0,86,0.00,CLR,,0.00,WeatherDisplay:10.37,2013-08-18 04:05:00,
2013-08-18 00:10:00,61.5,57.6,30.15,East,90,0.0,0.0,87,0.00,CLR,,0.00,WeatherDisplay:10.37,2013-08-18 04:10:00,
2013-08-18 00:15:00,61.5,57.3,30.15,East,90,0.0,0.0,86,0.00,CLR,,0.00,WeatherDisplay:10.37,2013-08-18 04:15:00,
2013-08-18 00:20:00,61.3,57.1,30.15,East,85,0.0,0.0,86,0.00,CLR,,0.00,WeatherDisplay:10.37,2013-08-18 04:20:00,
2013-08-18 00:25:00,61.3,57.4,30.15,ENE,74,0.0,0.0,87,0.00,CLR,,0.00,WeatherDisplay:10.37,2013-08-18 04:25:00,
2013-08-18 00:30:00,61.3,57.4,30.15,ENE,75,0.0,0.0,87,0.00,CLR,,0.00,WeatherDisplay:10.37,2013-08-18 04:30:00,
2013-08-18 00:40:00,61.2,57.3,30.15,East,90,0.0,0.0,87,0.00,CLR,,0.00,WeatherDisplay:10.37,2013-08-18 04:40:00,
2013-08-18 00:45:00,61.2,57.3,30.15,East,90,0.0,0.0,87,0.00,CLR,,0.00,WeatherDisplay:10.37,2013-08-18 04:45:00,
2013-08-18 00:50:00,61.2,57.3,30.15,East,90,0.0,0.0,87,0.00,CLR,,0.00,WeatherDisplay:10.37,2013-08-18 04:50:00,
2013-08-18 00:55:00,61.2,57.3,30.15,East,90,0.0,0.0,87,0.00,CLR,,0.00,WeatherDisplay:10.37,2013-08-18 04:55:00,
2013-08-18 01:00:00,61.2,57.3,30.15,East,90,0.0,0.0,87,0.00,CLR,,0.00,WeatherDisplay:10.37,2013-08-18 05:00:00,
2013-08-18 01:05:00,61.0,57.1,30.15,East,90,0.0,0.0,87,0.00,CLR,,0.00,WeatherDisplay:10.37,2013-08-18 05:05:00,
2013-08-18 01:10:00,61.0,57.4,30.15,East,90,0.0,0.0,88,0.00,CLR,,0.00,WeatherDisplay:10.37,2013-08-18 05:10:00,
2013-08-18 01:20:00,61.0,57.4,30.15,East,90,0.0,0.0,88,0.00,CLR,,0.00,WeatherDisplay:10.37,2013-08-18 05:20:00,
2013-08-18 01:25:00,61.0,57.4,30.15,East,90,0.0,0.0,88,0.00,CLR,,0.00,WeatherDisplay:10.37,2013-08-18 05:25:00,
2013-08-18 01:30:00,61.0,57.4,30.15,East,90,0.0,0.0,88,0.00,CLR,,0.00,WeatherDisplay:10.37,2013-08-18 05:30:00,
2013-08-18 01:35:00,60.8,57.2,30.15,East,90,0.0,0.0,88,0.00,CLR,,0.00,WeatherDisplay:10.37,2013-08-18 05:35:00,
2013-08-18 01:40:00,60.8,57.2,30.15,East,90,0.0,0.0,88,0.00,CLR,,0.00,WeatherDisplay:10.37,2013-08-18 05:40:00,
2013-08-18 01:45:00,60.9,57.3,30.15,East,90,0.0,0.0,88,0.00,CLR,,0.00,WeatherDisplay:10.37,2013-08-18 05:45:00,
2013-08-18 01:50:00,60.9,57.3,30.15,East,90,0.0,0.0,88,0.00,CLR,,0.00,WeatherDisplay:10.37,2013-08-18 05:50:00,
2013-08-18 01:55:00,61.0,57.4,30.15,East,90,0.0,0.0,88,0.00,CLR,,0.00,WeatherDisplay:10.37,2013-08-18 05:55:00,
2013-08-18 02:00:00,61.0,57.4,30.15,East,90,0.0,0.0,88,0.00,CLR,,0.00,WeatherDisplay:10.37,2013-08-18 06:00:00,
2013-08-18 02:05:00,61.0,57.4,30.15,East,90,0.0,0.0,88,0.00,CLR,,0.00,WeatherDisplay:10.37,2013-08-18 06:05:00,
2013-08-18 02:10:00,60.8,57.2,30.15,East,90,0.0,0.0,88,0.00,CLR,,0.00,WeatherDisplay:10.37,2013-08-18 06:10:00,
2013-08-18 02:15:00,60.8,57.5,30.15,East,90,0.0,0.0,89,0.00,CLR,,0.00,WeatherDisplay:10.37,2013-08-18 06:15:00,
2013-08-18 02:20:00,60.8,57.5,30.15,East,90,0.0,0.0,89,0.00,CLR,,0.00,WeatherDisplay:10.37,2013-08-18 06:20:00,
2013-08-18 02:25:00,60.8,57.5,30.15,ESE,103,0.0,0.0,89,0.00,CLR,,0.00,WeatherDisplay:10.37,2013-08-18 06:25:00,
2013-08-18 02:30:00,60.6,57.7,30.15,ESE,102,0.0,0.0,90,0.00,CLR,,0.00,WeatherDisplay:10.37,2013-08-18 06:30:00,
2013-08-18 02:35:00,60.6,57.7,30.15,East,91,0.0,0.0,90,0.00,CLR,,0.00,WeatherDisplay:10.37,2013-08-18 06:35:00,
2013-08-18 02:40:00,60.6,57.7,30.15,East,90,0.0,0.0,90,0.00,CLR,,0.00,WeatherDisplay:10.37,2013-08-18 06:40:00,
2013-08-18 02:45:00,60.5,57.3,30.15,East,90,0.0,0.0,89,0.00,CLR,,0.00,WeatherDisplay:10.37,2013-08-18 06:45:00,
2013-08-18 02:50:00,60.4,57.2,30.15,East,90,0.0,0.0,89,0.00,CLR,,0.00,WeatherDisplay:10.37,2013-08-18 06:50:00,
2013-08-18 02:55:00,60.4,57.2,30.15,East,90,0.0,0.0,89,0.00,CLR,,0.00,WeatherDisplay:10.37,2013-08-18 06:55:00,
2013-08-18 03:00:00,60.4,57.2,30.15,East,90,0.0,0.0,89,0.00,CLR,,0.00,WeatherDisplay:10.37,2013-08-18 07:00:00,
2013-08-18 03:05:00,60.4,57.2,30.15,East,90,0.0,0.0,89,0.00,CLR,,0.00,WeatherDisplay:10.37,2013-08-18 07:05:00,
2013-08-18 03:10:00,60.3,57.0,30.15,East,90,0.0,0.0,89,0.00,CLR,,0.00,WeatherDisplay:10.37,2013-08-18 07:10:00,
2013-08-18 03:15:00,60.3,57.0,30.15,East,90,0.0,0.0,89,0.00,CLR,,0.00,WeatherDisplay:10.37,2013-08-18 07:15:00,
2013-08-18 03:20:00,60.4,57.2,30.15,East,90,0.0,0.0,89,0.00,CLR,,0.00,WeatherDisplay:10.37,2013-08-18 07:20:00,
2013-08-18 03:25:00,60.3,57.3,30.15,East,90,0.0,0.0,90,0.00,CLR,,0.00,WeatherDisplay:10.37,2013-08-18 07:25:00,
2013-08-18 03:30:00,60.3,57.0,30.15,East,90,0.0,0.0,89,0.00,CLR,,0.00,WeatherDisplay:10.37,2013-08-18 07:30:00,
2013-08-18 03:40:00,60.2,57.0,30.15,East,95,0.0,0.0,89,0.00,CLR,,0.00,WeatherDisplay:10.37,2013-08-18 07:40:00,
2013-08-18 03:45:00,60.2,56.9,30.15,ESE,106,0.0,0.0,89,0.00,CLR,,0.00,WeatherDisplay:10.37,2013-08-18 07:45:00,
2013-08-18 03:50:00,60.1,56.8,30.15,ESE,112,0.0,0.0,89,0.00,CLR,,0.00,WeatherDisplay:10.37,2013-08-18 07:50:00,
2013-08-18 03:55:00,60.1,57.1,30.15,ESE,104,0.0,0.0,90,0.00,CLR,,0.00,WeatherDisplay:10.37,2013-08-18 07:55:00,
2013-08-18 04:00:00,60.1,57.1,30.15,East,93,0.0,0.0,90,0.00,CLR,,0.00,WeatherDisplay:10.37,2013-08-18 08:00:00,
2013-08-18 04:05:00,59.9,57.0,30.15,East,90,0.0,0.0,90,0.00,CLR,,0.00,WeatherDisplay:10.37,2013-08-18 08:05:00,
2013-08-18 04:10:00,59.9,57.0,30.15,East,90,0.0,0.0,90,0.00,CLR,,0.00,WeatherDisplay:10.37,2013-08-18 08:10:00,
2013-08-18 04:15:00,59.9,57.0,30.15,East,90,0.0,0.0,90,0.00,CLR,,0.00,WeatherDisplay:10.37,2013-08-18 08:15:00,
2013-08-18 04:20:00,59.7,56.8,30.15,East,90,0.0,0.0,90,0.00,CLR,,0.00,WeatherDisplay:10.37,2013-08-18 08:20:00,
2013-08-18 04:25:00,59.7,56.8,30.15,East,90,0.0,0.0,90,0.00,CLR,,0.00,WeatherDisplay:10.37,2013-08-18 08:25:00,
2013-08-18 04:30:00,59.5,56.6,30.15,East,90,0.0,0.0,90,0.00,CLR,,0.00,WeatherDisplay:10.37,2013-08-18 08:30:00,
2013-08-18 04:35:00,59.7,56.8,30.15,East,91,0.0,0.0,90,0.00,CLR,,0.00,WeatherDisplay:10.37,2013-08-18 08:35:00,
2013-08-18 04:40:00,59.7,56.8,30.15,ESE,118,0.0,0.0,90,0.00,CLR,,0.00,WeatherDisplay:10.37,2013-08-18 08:40:00,
2013-08-18 04:45:00,59.7,56.8,30.15,SE,135,0.0,0.0,90,0.00,CLR,,0.00,WeatherDisplay:10.37,2013-08-18 08:45:00,
2013-08-18 04:50:00,59.7,56.8,30.15,SE,135,0.0,0.0,90,0.00,CLR,,0.00,WeatherDisplay:10.37,2013-08-18 08:50:00,
2013-08-18 04:55:00,59.7,56.8,30.15,ESE,123,0.0,0.0,90,0.00,CLR,,0.00,WeatherDisplay:10.37,2013-08-18 08:55:00,
2013-08-18 05:00:00,59.7,56.8,30.15,ESE,102,0.0,0.0,90,0.00,CLR,,0.00,WeatherDisplay:10.37,2013-08-18 09:00:00,
2013-08-18 05:05:00,59.5,56.6,30.15,East,91,0.0,0.0,90,0.00,CLR,,0.00,WeatherDisplay:10.37,2013-08-18 09:05:00,
2013-08-18 05:10:00,59.7,56.8,30.15,East,90,0.0,0.0,90,0.00,CLR,,0.00,WeatherDisplay:10.37,2013-08-18 09:10:00,
2013-08-18 05:15:00,59.5,56.6,30.15,East,90,0.0,0.0,90,0.00,CLR,,0.00,WeatherDisplay:10.37,2013-08-18 09:15:00,
2013-08-18 05:20:00,59.6,56.9,30.15,East,90,0.0,0.0,91,0.00,CLR,,0.00,WeatherDisplay:10.37,2013-08-18 09:20:00,
2013-08-18 05:25:00,59.7,56.8,30.15,East,90,0.0,0.0,90,0.00,CLR,,0.00,WeatherDisplay:10.37,2013-08-18 09:25:00,
2013-08-18 05:30:00,59.7,57.1,30.15,East,90,0.0,0.0,91,0.00,CLR,,0.00,WeatherDisplay:10.37,2013-08-18 09:30:00,
2013-08-18 05:35:00,59.6,56.6,30.15,East,90,0.0,0.0,90,0.00,CLR,,0.00,WeatherDisplay:10.37,2013-08-18 09:35:00,
2013-08-18 05:40:00,59.7,57.1,30.15,East,90,0.0,0.0,91,0.00,CLR,,0.00,WeatherDisplay:10.37,2013-08-18 09:40:00,
2013-08-18 05:45:00,59.5,56.6,30.15,East,90,0.0,0.0,90,0.00,CLR,,0.00,WeatherDisplay:10.37,2013-08-18 09:45:00,
2013-08-18 05:50:00,59.5,56.6,30.15,East,90,0.0,0.0,90,0.00,CLR,,0.00,WeatherDisplay:10.37,2013-08-18 09:50:00,
2013-08-18 05:55:00,59.5,56.6,30.15,East,90,0.0,0.0,90,0.00,CLR,,0.00,WeatherDisplay:10.37,2013-08-18 09:55:00,
2013-08-18 06:00:00,59.5,56.6,30.15,East,90,0.0,0.0,90,0.00,CLR,,0.00,WeatherDisplay:10.37,2013-08-18 10:00:00,
2013-08-18 06:05:00,59.4,56.7,30.15,East,90,0.0,0.0,91,0.00,CLR,,0.00,WeatherDisplay:10.37,2013-08-18 10:05:00,
2013-08-18 06:10:00,59.4,56.7,30.15,East,90,0.0,0.0,91,0.00,CLR,,0.00,WeatherDisplay:10.37,2013-08-18 10:10:00,
2013-08-18 06:15:00,59.4,56.7,30.15,East,90,0.0,0.0,91,0.00,CLR,,0.00,WeatherDisplay:10.37,2013-08-18 10:15:00,
2013-08-18 06:20:00,59.4,56.7,30.15,East,90,0.0,0.0,91,0.00,CLR,,0.00,WeatherDisplay:10.37,2013-08-18 10:20:00,
2013-08-18 06:25:00,59.5,56.8,30.15,East,90,0.0,0.0,91,0.00,CLR,,0.00,WeatherDisplay:10.37,2013-08-18 10:25:00,
2013-08-18 06:30:00,59.5,56.9,30.15,East,90,0.0,0.0,91,0.00,CLR,,0.00,WeatherDisplay:10.37,2013-08-18 10:30:00,
2013-08-18 06:35:00,59.5,56.9,30.15,East,90,0.0,0.0,91,0.00,CLR,,0.00,WeatherDisplay:10.37,2013-08-18 10:35:00,
2013-08-18 06:40:00,59.5,56.9,30.15,East,90,0.0,0.0,91,0.00,CLR,,0.00,WeatherDisplay:10.37,2013-08-18 10:40:00,
2013-08-18 06:45:00,59.7,57.1,30.15,East,90,0.0,0.0,91,0.00,CLR,,0.00,WeatherDisplay:10.37,2013-08-18 10:45:00,
2013-08-18 06:50:00,59.6,56.9,30.15,East,90,0.0,0.0,91,0.00,CLR,,0.00,WeatherDisplay:10.37,2013-08-18 10:50:00,
2013-08-18 06:55:00,59.7,57.1,30.15,East,90,0.0,0.0,91,0.00,CLR,,0.00,WeatherDisplay:10.37,2013-08-18 10:55:00,
2013-08-18 07:00:00,59.9,57.3,30.15,East,90,0.0,0.0,91,0.00,CLR,,0.00,WeatherDisplay:10.37,2013-08-18 11:00:00,
2013-08-18 07:05:00,60.1,57.4,30.15,East,90,0.0,0.0,91,0.00,CLR,,0.00,WeatherDisplay:10.37,2013-08-18 11:05:00,
2013-08-18 07:10:00,60.1,57.4,30.15,East,90,0.0,0.0,91,0.00,CLR,,0.00,WeatherDisplay:10.37,2013-08-18 11:10:00,
2013-08-18 07:15:00,60.3,57.6,30.15,East,90,0.0,0.0,91,0.00,CLR,,0.00,WeatherDisplay:10.37,2013-08-18 11:15:00,
2013-08-18 07:20:00,60.4,57.8,30.15,East,90,0.0,0.0,91,0.00,CLR,,0.00,WeatherDisplay:10.37,2013-08-18 11:20:00,
2013-08-18 07:25:00,60.4,57.8,30.15,East,90,0.0,0.0,91,0.00,CLR,,0.00,WeatherDisplay:10.37,2013-08-18 11:25:00,
2013-08-18 07:30:00,60.6,58.0,30.15,SE,127,0.0,0.0,91,0.00,CLR,,0.00,WeatherDisplay:10.37,2013-08-18 11:30:00,
2013-08-18 07:35:00,60.6,58.3,30.15,SSE,158,0.0,0.0,92,0.00,CLR,,0.00,WeatherDisplay:10.37,2013-08-18 11:35:00,
2013-08-18 07:40:00,60.8,58.2,30.15,SSE,158,0.0,0.0,91,0.00,CLR,,0.00,WeatherDisplay:10.37,2013-08-18 11:40:00,
2013-08-18 07:45:00,60.8,58.5,30.15,SSE,158,0.0,0.0,92,0.00,CLR,,0.00,WeatherDisplay:10.37,2013-08-18 11:45:00,
2013-08-18 07:50:00,61.0,58.3,30.15,SSE,158,0.0,0.0,91,0.00,CLR,,0.00,WeatherDisplay:10.37,2013-08-18 11:50:00,
2013-08-18 07:55:00,61.1,58.4,30.15,SSE,158,0.0,0.0,91,0.00,CLR,,0.00,WeatherDisplay:10.37,2013-08-18 11:55:00,
2013-08-18 08:00:00,61.2,58.5,30.15,SSE,158,0.0,0.0,91,0.00,CLR,,0.00,WeatherDisplay:10.37,2013-08-18 12:00:00,
2013-08-18 08:05:00,61.3,58.7,30.15,SSE,158,0.0,0.0,91,0.00,CLR,,0.00,WeatherDisplay:10.37,2013-08-18 12:05:00,
2013-08-18 08:10:00,61.7,59.0,30.15,SSE,158,0.0,0.0,91,0.00,CLR,,0.00,WeatherDisplay:10.37,2013-08-18 12:10:00,
2013-08-18 08:15:00,61.7,59.0,30.15,SSE,158,0.0,0.0,91,0.00,CLR,,0.00,WeatherDisplay:10.37,2013-08-18 12:15:00,
2013-08-18 08:20:00,62.0,59.7,30.15,SSE,158,0.0,0.0,92,0.00,CLR,,0.00,WeatherDisplay:10.37,2013-08-18 12:20:00,
2013-08-18 08:25:00,62.1,59.7,30.15,SSE,158,0.0,0.0,92,0.00,CLR,,0.00,WeatherDisplay:10.37,2013-08-18 12:25:00,
2013-08-18 08:30:00,62.2,59.6,30.15,SSE,158,0.0,0.0,91,0.00,CLR,,0.00,WeatherDisplay:10.37,2013-08-18 12:30:00,
2013-08-18 08:35:00,62.4,59.8,30.15,SSE,158,0.0,0.0,91,0.00,CLR,,0.00,WeatherDisplay:10.37,2013-08-18 12:35:00,
2013-08-18 08:40:00,62.4,59.8,30.15,SSE,158,0.0,0.0,91,0.00,CLR,,0.00,WeatherDisplay:10.37,2013-08-18 12:40:00,
2013-08-18 08:45:00,62.6,59.9,30.15,SSE,158,0.0,0.0,91,0.00,CLR,,0.00,WeatherDisplay:10.37,2013-08-18 12:45:00,
2013-08-18 08:50:00,62.9,60.2,30.15,SSE,158,0.0,0.0,91,0.00,CLR,,0.00,WeatherDisplay:10.37,2013-08-18 12:50:00,
2013-08-18 09:00:00,63.3,60.7,30.15,SSW,200,0.0,0.0,91,0.00,CLR,,0.00,WeatherDisplay:10.37,2013-08-18 13:00:00,
2013-08-18 09:05:00,63.7,61.0,30.15,South,189,0.0,0.0,91,0.00,CLR,,0.00,WeatherDisplay:10.37,2013-08-18 13:05:00,
2013-08-18 09:10:00,64.0,61.4,30.15,South,180,0.0,0.0,91,0.00,CLR,,0.00,WeatherDisplay:10.37,2013-08-18 13:10:00,
2013-08-18 09:15:00,64.2,61.5,30.15,South,180,0.0,0.0,91,0.00,CLR,,0.00,WeatherDisplay:10.37,2013-08-18 13:15:00,
2013-08-18 09:20:00,64.4,61.7,30.15,South,187,0.0,0.0,91,0.00,CLR,,0.00,WeatherDisplay:10.37,2013-08-18 13:20:00,
2013-08-18 09:30:00,65.1,62.4,30.15,SSW,200,0.0,1.0,91,0.00,CLR,,0.00,WeatherDisplay:10.37,2013-08-18 13:30:00,
2013-08-18 09:35:00,65.3,62.6,30.15,SSW,204,0.0,0.0,91,0.00,CLR,,0.00,WeatherDisplay:10.37,2013-08-18 13:35:00,
2013-08-18 09:40:00,65.5,62.8,30.15,SSW,202,0.0,0.0,91,0.00,CLR,,0.00,WeatherDisplay:10.37,2013-08-18 13:40:00,
2013-08-18 09:45:00,65.8,63.1,30.15,SSW,202,0.0,0.0,91,0.00,CLR,,0.00,WeatherDisplay:10.37,2013-08-18 13:45:00,
2013-08-18 09:50:00,66.1,63.4,30.15,SW,217,0.0,1.0,91,0.00,CLR,,0.00,WeatherDisplay:10.37,2013-08-18 13:50:00,
2013-08-18 09:55:00,66.3,63.2,30.15,WSW,238,0.0,0.0,90,0.00,CLR,,0.00,WeatherDisplay:10.37,2013-08-18 13:55:00,
2013-08-18 10:00:00,66.6,63.5,30.15,SW,221,0.0,0.0,90,0.00,CLR,,0.00,WeatherDisplay:10.37,2013-08-18 14:00:00,
2013-08-18 10:05:00,66.9,63.9,30.15,SSW,199,0.0,1.0,90,0.00,CLR,,0.00,WeatherDisplay:10.37,2013-08-18 14:05:00,
2013-08-18 10:10:00,67.1,64.1,30.15,SW,215,0.0,2.0,90,0.00,CLR,,0.00,WeatherDisplay:10.37,2013-08-18 14:10:00,
2013-08-18 10:15:00,67.5,64.4,30.15,SW,217,0.0,0.0,90,0.00,CLR,,0.00,WeatherDisplay:10.37,2013-08-18 14:15:00,
2013-08-18 10:20:00,67.6,64.5,30.15,SSW,203,0.0,0.0,90,0.00,CLR,,0.00,WeatherDisplay:10.37,2013-08-18 14:20:00,
2013-08-18 10:30:00,68.2,64.8,30.15,SW,224,0.0,1.0,89,0.00,CLR,,0.00,WeatherDisplay:10.37,2013-08-18 14:30:00,
2013-08-18 10:35:00,68.5,65.5,30.15,SW,225,0.0,0.0,90,0.00,CLR,,0.00,WeatherDisplay:10.37,2013-08-18 14:35:00,
2013-08-18 10:40:00,69.1,66.0,30.15,SW,225,0.0,0.0,90,0.00,CLR,,0.00,WeatherDisplay:10.37,2013-08-18 14:40:00,
2013-08-18 10:45:00,69.3,65.9,30.15,South,188,0.0,0.0,89,0.00,CLR,,0.00,WeatherDisplay:10.37,2013-08-18 14:45:00,
2013-08-18 10:50:00,69.6,66.2,30.15,SE,135,0.0,0.0,89,0.00,CLR,,0.00,WeatherDisplay:10.37,2013-08-18 14:50:00,
2013-08-18 10:55:00,69.7,66.3,30.15,SE,134,0.0,0.0,89,0.00,CLR,,0.00,WeatherDisplay:10.37,2013-08-18 14:55:00,
2013-08-18 11:00:00,70.0,65.6,30.15,South,175,0.0,1.0,86,0.00,CLR,,0.00,WeatherDisplay:10.37,2013-08-18 15:00:00,
2013-08-18 11:05:00,70.3,66.3,30.15,SW,231,0.0,2.0,87,0.00,CLR,,0.00,WeatherDisplay:10.37,2013-08-18 15:05:00,
2013-08-18 11:10:00,70.9,66.1,30.15,West,275,1.0,1.0,85,0.00,CLR,,0.00,WeatherDisplay:10.37,2013-08-18 15:10:00,
2013-08-18 11:15:00,70.9,65.8,30.12,SE,140,0.0,2.0,84,0.00,CLR,,0.00,WeatherDisplay:10.37,2013-08-18 15:15:00,
2013-08-18 11:20:00,71.1,66.3,30.12,SSE,152,0.0,0.0,85,0.00,CLR,,0.00,WeatherDisplay:10.37,2013-08-18 15:20:00,
2013-08-18 11:25:00,71.2,66.2,30.12,SSE,157,0.0,1.0,84,0.00,CLR,,0.00,WeatherDisplay:10.37,2013-08-18 15:25:00,
2013-08-18 11:30:00,71.4,66.3,30.12,SE,133,0.0,0.0,84,0.00,CLR,,0.00,WeatherDisplay:10.37,2013-08-18 15:30:00,
2013-08-18 11:35:00,71.6,66.2,30.12,SE,142,0.0,0.0,83,0.00,CLR,,0.00,WeatherDisplay:10.37,2013-08-18 15:35:00,
2013-08-18 11:40:00,72.0,66.2,30.12,SSE,163,0.0,1.0,82,0.00,CLR,,0.00,WeatherDisplay:10.37,2013-08-18 15:40:00,
2013-08-18 11:45:00,72.0,65.8,30.12,SE,125,0.0,2.0,81,0.00,CLR,,0.00,WeatherDisplay:10.37,2013-08-18 15:45:00,
2013-08-18 11:50:00,72.1,65.9,30.12,ENE,76,1.0,2.0,81,0.00,CLR,,0.00,WeatherDisplay:10.37,2013-08-18 15:50:00,
2013-08-18 11:55:00,72.3,66.5,30.12,SSE,156,0.0,1.0,82,0.00,CLR,,0.00,WeatherDisplay:10.37,2013-08-18 15:55:00,
2013-08-18 12:00:00,72.5,66.3,30.12,SSE,157,1.0,2.0,81,0.00,CLR,,0.00,WeatherDisplay:10.37,2013-08-18 16:00:00,
2013-08-18 12:05:00,72.5,66.3,30.12,SSE,154,1.0,2.0,81,0.00,CLR,,0.00,WeatherDisplay:10.37,2013-08-18 16:05:00,
2013-08-18 12:10:00,72.7,66.2,30.12,ENE,78,0.0,2.0,80,0.00,CLR,,0.00,WeatherDisplay:10.37,2013-08-18 16:10:00,
2013-08-18 12:15:00,72.7,65.8,30.12,ENE,62,0.0,2.0,79,0.00,CLR,,0.00,WeatherDisplay:10.37,2013-08-18 16:15:00,
2013-08-18 12:20:00,72.6,65.7,30.12,ENE,72,1.0,1.0,79,0.00,CLR,,0.00,WeatherDisplay:10.37,2013-08-18 16:20:00,
2013-08-18 12:25:00,72.5,65.6,30.12,ESE,112,0.0,1.0,79,0.00,CLR,,0.00,WeatherDisplay:10.37,2013-08-18 16:25:00,
2013-08-18 12:30:00,72.9,66.0,30.09,WNW,292,1.0,1.0,79,0.00,CLR,,0.00,WeatherDisplay:10.37,2013-08-18 16:30:00,
2013-08-18 12:35:00,73.2,66.3,30.09,WSW,241,0.0,1.0,79,0.00,CLR,,0.00,WeatherDisplay:10.37,2013-08-18 16:35:00,
2013-08-18 12:40:00,73.4,65.7,30.09,South,170,0.0,1.0,77,0.00,CLR,,0.00,WeatherDisplay:10.37,2013-08-18 16:40:00,
2013-08-18 12:45:00,73.8,66.5,30.09,SE,142,0.0,1.0,78,0.00,CLR,,0.00,WeatherDisplay:10.37,2013-08-18 16:45:00,
2013-08-18 12:50:00,73.9,66.6,30.09,East,93,0.0,1.0,78,0.00,CLR,,0.00,WeatherDisplay:10.37,2013-08-18 16:50:00,
2013-08-18 12:55:00,74.1,66.4,30.09,NNE,17,0.0,1.0,77,0.00,CLR,,0.00,WeatherDisplay:10.37,2013-08-18 16:55:00,
2013-08-18 13:00:00,74.1,66.1,30.09,South,178,0.0,1.0,76,0.00,CLR,,0.00,WeatherDisplay:10.37,2013-08-18 17:00:00,
2013-08-18 13:05:00,74.1,66.4,30.09,SSW,201,1.0,2.0,77,0.00,CLR,,0.00,WeatherDisplay:10.37,2013-08-18 17:05:00,
2013-08-18 13:10:00,74.1,66.4,30.09,SSW,193,0.0,2.0,77,0.00,CLR,,0.00,WeatherDisplay:10.37,2013-08-18 17:10:00,
2013-08-18 13:15:00,73.9,66.3,30.09,ESE,107,1.0,1.0,77,0.00,CLR,,0.00,WeatherDisplay:10.37,2013-08-18 17:15:00,
2013-08-18 13:20:00,73.8,65.7,30.09,East,93,0.0,1.0,76,0.00,CLR,,0.00,WeatherDisplay:10.37,2013-08-18 17:20:00,
2013-08-18 13:25:00,73.7,65.7,30.09,East,87,0.0,1.0,76,0.00,CLR,,0.00,WeatherDisplay:10.37,2013-08-18 17:25:00,
2013-08-18 13:30:00,73.6,65.5,30.09,East,92,0.0,0.0,76,0.00,CLR,,0.00,WeatherDisplay:10.37,2013-08-18 17:30:00,
2013-08-18 13:35:00,73.8,66.1,30.09,East,94,0.0,0.0,77,0.00,CLR,,0.00,WeatherDisplay:10.37,2013-08-18 17:35:00,
2013-08-18 13:40:00,73.9,66.3,30.09,ESE,108,0.0,0.0,77,0.00,CLR,,0.00,WeatherDisplay:10.37,2013-08-18 17:40:00,
2013-08-18 13:45:00,73.9,66.3,30.09,SE,135,0.0,1.0,77,0.00,CLR,,0.00,WeatherDisplay:10.37,2013-08-18 17:45:00,
2013-08-18 13:50:00,73.9,66.3,30.09,NE,56,0.0,1.0,77,0.00,CLR,,0.00,WeatherDisplay:10.37,2013-08-18 17:50:00,
2013-08-18 13:55:00,74.3,66.6,30.09,East,81,0.0,1.0,77,0.00,CLR,,0.00,WeatherDisplay:10.37,2013-08-18 17:55:00,
2013-08-18 14:00:00,74.3,66.6,30.09,East,101,0.0,0.0,77,0.00,CLR,,0.00,WeatherDisplay:10.37,2013-08-18 18:00:00,
2013-08-18 14:05:00,73.9,65.9,30.09,ESE,110,0.0,1.0,76,0.00,CLR,,0.00,WeatherDisplay:10.37,2013-08-18 18:05:00,
2013-08-18 14:10:00,74.1,66.1,30.09,SE,144,0.0,1.0,76,0.00,CLR,,0.00,WeatherDisplay:10.37,2013-08-18 18:10:00,
2013-08-18 14:15:00,74.1,66.1,30.06,SSE,158,0.0,0.0,76,0.00,CLR,,0.00,WeatherDisplay:10.37,2013-08-18 18:15:00,
2013-08-18 14:20:00,73.9,65.8,30.06,SE,134,0.0,0.0,76,0.00,CLR,,0.00,WeatherDisplay:10.37,2013-08-18 18:20:00,
2013-08-18 14:25:00,73.8,65.7,30.06,SE,125,0.0,0.0,76,0.00,CLR,,0.00,WeatherDisplay:10.37,2013-08-18 18:25:00,
2013-08-18 14:30:00,73.9,66.3,30.06,ESE,106,0.0,0.0,77,0.00,CLR,,0.00,WeatherDisplay:10.37,2013-08-18 18:30:00,
2013-08-18 14:35:00,74.3,66.2,30.06,SE,136,2.0,2.0,76,0.00,CLR,,0.00,WeatherDisplay:10.37,2013-08-18 18:35:00,
2013-08-18 14:40:00,74.3,66.6,30.06,WSW,246,1.0,2.0,77,0.00,CLR,,0.00,WeatherDisplay:10.37,2013-08-18 18:40:00,
2013-08-18 14:45:00,74.3,66.2,30.06,SW,226,1.0,2.0,76,0.00,CLR,,0.00,WeatherDisplay:10.37,2013-08-18 18:45:00,
2013-08-18 14:50:00,74.3,65.9,30.06,SW,232,0.0,2.0,75,0.00,CLR,,0.00,WeatherDisplay:10.37,2013-08-18 18:50:00,
2013-08-18 14:55:00,74.1,65.7,30.06,SW,235,1.0,1.0,75,0.00,CLR,,0.00,WeatherDisplay:10.37,2013-08-18 18:55:00,
2013-08-18 15:00:00,74.3,65.9,30.06,SE,141,0.0,0.0,75,0.00,CLR,,0.00,WeatherDisplay:10.37,2013-08-18 19:00:00,
2013-08-18 15:05:00,74.1,66.1,30.06,ESE,112,0.0,0.0,76,0.00,CLR,,0.00,WeatherDisplay:10.37,2013-08-18 19:05:00,
2013-08-18 15:10:00,74.1,66.1,30.06,East,90,0.0,0.0,76,0.00,CLR,,0.00,WeatherDisplay:10.37,2013-08-18 19:10:00,
2013-08-18 15:15:00,74.3,66.6,30.03,East,90,0.0,0.0,77,0.00,CLR,,0.00,WeatherDisplay:10.37,2013-08-18 19:15:00,
2013-08-18 15:20:00,74.4,66.7,30.03,ESE,116,0.0,0.0,77,0.00,CLR,,0.00,WeatherDisplay:10.37,2013-08-18 19:20:00,
2013-08-18 15:25:00,74.1,66.4,30.03,ESE,112,1.0,1.0,77,0.00,CLR,,0.00,WeatherDisplay:10.37,2013-08-18 19:25:00,
2013-08-18 15:30:00,74.1,66.1,30.03,NE,56,0.0,1.0,76,0.00,CLR,,0.00,WeatherDisplay:10.37,2013-08-18 19:30:00,
2013-08-18 15:35:00,73.9,66.3,30.03,NE,55,0.0,1.0,77,0.00,CLR,,0.00,WeatherDisplay:10.37,2013-08-18 19:35:00,
2013-08-18 15:40:00,73.8,65.7,30.03,East,92,0.0,1.0,76,0.00,CLR,,0.00,WeatherDisplay:10.37,2013-08-18 19:40:00,
2013-08-18 15:45:00,73.9,66.2,30.03,SE,124,0.0,0.0,77,0.00,CLR,,0.00,WeatherDisplay:10.37,2013-08-18 19:45:00,
2013-08-18 15:50:00,73.8,66.1,30.03,East,98,0.0,0.0,77,0.00,CLR,,0.00,WeatherDisplay:10.37,2013-08-18 19:50:00,
2013-08-18 15:55:00,73.4,65.7,30.03,ENE,78,0.0,0.0,77,0.00,CLR,,0.00,WeatherDisplay:10.37,2013-08-18 19:55:00,
2013-08-18 16:00:00,73.6,65.9,30.03,ESE,110,0.0,0.0,77,0.00,CLR,,0.00,WeatherDisplay:10.37,2013-08-18 20:00:00,
2013-08-18 16:05:00,73.2,65.6,30.03,ESE,120,0.0,0.0,77,0.00,CLR,,0.00,WeatherDisplay:10.37,2013-08-18 20:05:00,
2013-08-18 16:10:00,73.1,65.4,30.03,ESE,112,0.0,0.0,77,0.00,CLR,,0.00,WeatherDisplay:10.37,2013-08-18 20:10:00,
2013-08-18 16:15:00,73.1,65.5,30.03,ESE,117,0.0,0.0,77,0.00,CLR,,0.00,WeatherDisplay:10.37,2013-08-18 20:15:00,
2013-08-18 16:20:00,73.0,65.4,30.03,ESE,115,0.0,0.0,77,0.00,CLR,,0.00,WeatherDisplay:10.37,2013-08-18 20:20:00,
2013-08-18 16:25:00,72.9,65.2,30.03,East,96,0.0,0.0,77,0.00,CLR,,0.00,WeatherDisplay:10.37,2013-08-18 20:25:00,
2013-08-18 16:30:00,72.7,65.4,30.03,East,90,0.0,0.0,78,0.00,CLR,,0.00,WeatherDisplay:10.37,2013-08-18 20:30:00,
2013-08-18 16:35:00,72.5,65.2,30.03,East,90,0.0,0.0,78,0.00,CLR,,0.00,WeatherDisplay:10.37,2013-08-18 20:35:00,
2013-08-18 16:40:00,72.5,65.2,30.03,East,90,0.0,0.0,78,0.00,CLR,,0.00,WeatherDisplay:10.37,2013-08-18 20:40:00,
2013-08-18 16:45:00,72.4,65.2,30.03,East,90,0.0,0.0,78,0.00,CLR,,0.00,WeatherDisplay:10.37,2013-08-18 20:45:00,
2013-08-18 16:50:00,72.3,65.0,30.03,East,90,0.0,0.0,78,0.00,CLR,,0.00,WeatherDisplay:10.37,2013-08-18 20:50:00,
2013-08-18 16:55:00,72.1,65.3,30.03,ESE,111,0.0,0.0,79,0.00,CLR,,0.00,WeatherDisplay:10.37,2013-08-18 20:55:00,
2013-08-18 17:00:00,72.1,65.3,30.03,NNE,29,0.0,1.0,79,0.00,CLR,,0.00,WeatherDisplay:10.37,2013-08-18 21:00:00,
2013-08-18 17:05:00,72.1,65.3,30.03,NW,320,0.0,1.0,79,0.00,CLR,,0.00,WeatherDisplay:10.37,2013-08-18 21:05:00,
2013-08-18 17:10:00,72.0,65.1,30.03,East,87,0.0,2.0,79,0.00,CLR,,0.00,WeatherDisplay:10.37,2013-08-18 21:10:00,
2013-08-18 17:15:00,71.9,65.0,30.00,SSE,155,0.0,0.0,79,0.00,CLR,,0.00,WeatherDisplay:10.37,2013-08-18 21:15:00,
2013-08-18 17:20:00,71.4,64.2,30.00,SSW,213,0.0,1.0,78,0.00,CLR,,0.00,WeatherDisplay:10.37,2013-08-18 21:20:00,
2013-08-18 17:25:00,71.2,64.0,30.00,NNW,337,0.0,0.0,78,0.00,CLR,,0.00,WeatherDisplay:10.37,2013-08-18 21:25:00,
2013-08-18 17:30:00,71.1,63.9,30.00,North,5,0.0,1.0,78,0.00,CLR,,0.00,WeatherDisplay:10.37,2013-08-18 21:30:00,
2013-08-18 17:35:00,70.9,63.7,30.00,ESE,104,0.0,0.0,78,0.00,CLR,,0.00,WeatherDisplay:10.37,2013-08-18 21:35:00,
2013-08-18 17:40:00,70.9,63.7,30.00,ESE,107,0.0,0.0,78,0.00,CLR,,0.00,WeatherDisplay:10.37,2013-08-18 21:40:00,
2013-08-18 17:45:00,70.5,63.3,30.00,ESE,112,0.0,0.0,78,0.00,CLR,,0.00,WeatherDisplay:10.37,2013-08-18 21:45:00,
2013-08-18 17:50:00,70.3,63.2,30.00,ESE,123,0.0,0.0,78,0.00,CLR,,0.00,WeatherDisplay:10.37,2013-08-18 21:50:00,
2013-08-18 17:55:00,70.2,63.0,30.00,SSE,161,0.0,0.0,78,0.00,CLR,,0.00,WeatherDisplay:10.37,2013-08-18 21:55:00,
2013-08-18 18:00:00,69.9,63.1,30.00,SE,138,0.0,0.0,79,0.00,CLR,,0.00,WeatherDisplay:10.37,2013-08-18 22:00:00,
2013-08-18 18:05:00,69.4,63.0,30.00,East,85,0.0,0.0,80,0.00,CLR,,0.00,WeatherDisplay:10.37,2013-08-18 22:05:00,
2013-08-18 18:10:00,69.3,63.2,30.00,East,89,0.0,0.0,81,0.00,CLR,,0.00,WeatherDisplay:10.37,2013-08-18 22:10:00,
2013-08-18 18:15:00,68.7,62.7,30.00,ESE,103,0.0,0.0,81,0.00,CLR,,0.00,WeatherDisplay:10.37,2013-08-18 22:15:00,
2013-08-18 18:20:00,68.5,62.8,30.00,ESE,112,0.0,0.0,82,0.00,CLR,,0.00,WeatherDisplay:10.37,2013-08-18 22:20:00,
2013-08-18 18:25:00,68.5,63.2,30.00,ESE,112,0.0,0.0,83,0.00,CLR,,0.00,WeatherDisplay:10.37,2013-08-18 22:25:00,
2013-08-18 18:30:00,68.5,63.2,30.00,ESE,105,0.0,0.0,83,0.00,CLR,,0.00,WeatherDisplay:10.37,2013-08-18 22:30:00,
2013-08-18 18:35:00,68.5,63.1,30.00,East,93,0.0,0.0,83,0.00,CLR,,0.00,WeatherDisplay:10.37,2013-08-18 22:35:00,
2013-08-18 18:40:00,68.2,63.2,30.00,ESE,103,0.0,0.0,84,0.00,CLR,,0.00,WeatherDisplay:10.37,2013-08-18 22:40:00,
2013-08-18 18:45:00,68.0,63.0,30.00,ESE,112,0.0,0.0,84,0.00,CLR,,0.00,WeatherDisplay:10.37,2013-08-18 22:45:00,
2013-08-18 18:50:00,68.0,63.0,30.00,ESE,112,0.0,0.0,84,0.00,CLR,,0.00,WeatherDisplay:10.37,2013-08-18 22:50:00,
2013-08-18 18:55:00,67.7,63.0,30.00,ESE,112,0.0,0.0,85,0.00,CLR,,0.00,WeatherDisplay:10.37,2013-08-18 22:55:00,
2013-08-18 19:00:00,67.6,63.0,30.00,ESE,112,0.0,0.0,85,0.00,CLR,,0.00,WeatherDisplay:10.37,2013-08-18 23:00:00,
2013-08-18 19:05:00,67.5,62.8,30.00,ESE,112,0.0,0.0,85,0.00,CLR,,0.00,WeatherDisplay:10.37,2013-08-18 23:05:00,
2013-08-18 19:10:00,67.3,62.3,30.00,ESE,112,0.0,0.0,84,0.00,CLR,,0.00,WeatherDisplay:10.37,2013-08-18 23:10:00,
2013-08-18 19:15:00,66.7,61.7,30.00,ESE,112,0.0,0.0,84,0.00,CLR,,0.00,WeatherDisplay:10.37,2013-08-18 23:15:00,
2013-08-18 19:20:00,66.6,61.6,30.00,ESE,112,0.0,0.0,84,0.00,CLR,,0.00,WeatherDisplay:10.37,2013-08-18 23:20:00,
2013-08-18 19:25:00,66.4,61.7,30.00,ESE,112,0.0,0.0,85,0.00,CLR,,0.00,WeatherDisplay:10.37,2013-08-18 23:25:00,
2013-08-18 19:30:00,66.4,61.7,30.03,ESE,112,0.0,0.0,85,0.00,CLR,,0.00,WeatherDisplay:10.37,2013-08-18 23:30:00,
2013-08-18 19:35:00,66.2,61.6,30.03,ESE,112,0.0,0.0,85,0.00,CLR,,0.00,WeatherDisplay:10.37,2013-08-18 23:35:00,
2013-08-18 19:40:00,66.0,61.7,30.03,ESE,112,0.0,0.0,86,0.00,CLR,,0.00,WeatherDisplay:10.37,2013-08-18 23:40:00,
2013-08-18 19:45:00,65.7,61.7,30.00,ESE,112,0.0,0.0,87,0.00,CLR,,0.00,WeatherDisplay:10.37,2013-08-18 23:45:00,
2013-08-18 19:50:00,65.7,61.4,30.00,ESE,112,0.0,0.0,86,0.00,CLR,,0.00,WeatherDisplay:10.37,2013-08-18 23:50:00,
2013-08-18 19:55:00,65.4,61.1,30.00,ESE,112,0.0,0.0,86,0.00,CLR,,0.00,WeatherDisplay:10.37,2013-08-18 23:55:00,
2013-08-18 20:00:00,65.2,61.2,30.00,ESE,112,0.0,0.0,87,0.00,CLR,,0.00,WeatherDisplay:10.37,2013-08-19 00:00:00,
2013-08-18 20:05:00,65.1,61.2,30.00,ESE,112,0.0,0.0,87,0.00,CLR,,0.00,WeatherDisplay:10.37,2013-08-19 00:05:00,
2013-08-18 20:10:00,65.1,61.2,30.00,ESE,112,0.0,0.0,87,0.00,CLR,,0.00,WeatherDisplay:10.37,2013-08-19 00:10:00,
2013-08-18 20:15:00,64.9,61.0,30.00,ESE,112,0.0,0.0,87,0.00,CLR,,0.00,WeatherDisplay:10.37,2013-08-19 00:15:00,
2013-08-18 20:20:00,64.8,60.8,30.00,ESE,112,0.0,0.0,87,0.00,CLR,,0.00,WeatherDisplay:10.37,2013-08-19 00:20:00,
2013-08-18 20:25:00,64.6,60.9,30.00,ESE,112,0.0,0.0,88,0.00,CLR,,0.00,WeatherDisplay:10.37,2013-08-19 00:25:00,
2013-08-18 20:30:00,64.6,60.9,30.00,ESE,112,0.0,0.0,88,0.00,CLR,,0.00,WeatherDisplay:10.37,2013-08-19 00:30:00,
2013-08-18 20:35:00,64.4,60.4,30.00,ESE,112,0.0,0.0,87,0.00,CLR,,0.00,WeatherDisplay:10.37,2013-08-19 00:35:00,
2013-08-18 20:40:00,64.2,60.6,30.00,ESE,112,0.0,0.0,88,0.00,CLR,,0.00,WeatherDisplay:10.37,2013-08-19 00:40:00,
2013-08-18 20:45:00,64.0,60.4,30.03,ESE,112,0.0,0.0,88,0.00,CLR,,0.00,WeatherDisplay:10.37,2013-08-19 00:45:00,
2013-08-18 20:50:00,63.9,60.3,30.03,ESE,112,0.0,0.0,88,0.00,CLR,,0.00,WeatherDisplay:10.37,2013-08-19 00:50:00,
2013-08-18 20:55:00,63.9,60.2,30.03,ESE,112,0.0,0.0,88,0.00,CLR,,0.00,WeatherDisplay:10.37,2013-08-19 00:55:00,
2013-08-18 21:00:00,63.9,60.2,30.03,ESE,112,0.0,0.0,88,0.00,CLR,,0.00,WeatherDisplay:10.37,2013-08-19 01:00:00,
2013-08-18 21:05:00,63.7,60.1,30.03,ESE,112,0.0,0.0,88,0.00,CLR,,0.00,WeatherDisplay:10.37,2013-08-19 01:05:00,
2013-08-18 21:10:00,63.5,60.2,30.03,ESE,112,0.0,0.0,89,0.00,CLR,,0.00,WeatherDisplay:10.37,2013-08-19 01:10:00,
2013-08-18 21:15:00,63.5,59.9,30.00,ESE,112,0.0,0.0,88,0.00,CLR,,0.00,WeatherDisplay:10.37,2013-08-19 01:15:00,
2013-08-18 21:20:00,63.5,59.9,30.00,ESE,112,0.0,0.0,88,0.00,CLR,,0.00,WeatherDisplay:10.37,2013-08-19 01:20:00,
2013-08-18 21:25:00,63.2,59.6,30.00,ESE,112,0.0,0.0,88,0.00,CLR,,0.00,WeatherDisplay:10.37,2013-08-19 01:25:00,
2013-08-18 21:30:00,63.3,59.7,30.00,ESE,121,0.0,0.0,88,0.00,CLR,,0.00,WeatherDisplay:10.37,2013-08-19 01:30:00,
2013-08-18 21:35:00,63.1,59.5,30.00,SE,136,0.0,0.0,88,0.00,CLR,,0.00,WeatherDisplay:10.37,2013-08-19 01:35:00,
2013-08-18 21:40:00,63.1,59.5,30.00,SSE,167,0.0,0.0,88,0.00,CLR,,0.00,WeatherDisplay:10.37,2013-08-19 01:40:00,
2013-08-18 21:45:00,63.0,59.3,30.00,South,188,0.0,0.0,88,0.00,CLR,,0.00,WeatherDisplay:10.37,2013-08-19 01:45:00,
2013-08-18 21:50:00,63.0,59.3,30.00,South,170,0.0,1.0,88,0.00,CLR,,0.00,WeatherDisplay:10.37,2013-08-19 01:50:00,
2013-08-18 21:55:00,62.9,59.3,30.00,SSE,167,0.0,0.0,88,0.00,CLR,,0.00,WeatherDisplay:10.37,2013-08-19 01:55:00,
2013-08-18 22:00:00,62.9,59.3,30.00,SSW,200,0.0,0.0,88,0.00,CLR,,0.00,WeatherDisplay:10.37,2013-08-19 02:00:00,
2013-08-18 22:05:00,62.6,59.0,30.00,WNW,284,0.0,1.0,88,0.00,CLR,,0.00,WeatherDisplay:10.37,2013-08-19 02:05:00,
2013-08-18 22:15:00,62.6,59.0,30.00,SSE,154,0.0,1.0,88,0.00,CLR,,0.00,WeatherDisplay:10.37,2013-08-19 02:15:00,
2013-08-18 22:20:00,62.6,59.0,30.00,SSE,153,0.0,0.0,88,0.00,CLR,,0.00,WeatherDisplay:10.37,2013-08-19 02:20:00,
2013-08-18 22:25:00,62.6,59.0,30.00,SSE,154,0.0,0.0,88,0.00,CLR,,0.00,WeatherDisplay:10.37,2013-08-19 02:25:00,
2013-08-18 22:30:00,62.4,59.1,30.00,SE,144,0.0,0.0,89,0.00,CLR,,0.00,WeatherDisplay:10.37,2013-08-19 02:30:00,
2013-08-18 22:35:00,62.1,58.5,30.00,SE,134,0.0,0.0,88,0.00,CLR,,0.00,WeatherDisplay:10.37,2013-08-19 02:35:00,
2013-08-18 22:40:00,62.1,58.8,30.00,ESE,114,0.0,0.0,89,0.00,CLR,,0.00,WeatherDisplay:10.37,2013-08-19 02:40:00,
2013-08-18 22:45:00,61.9,58.6,30.00,SE,125,0.0,0.0,89,0.00,CLR,,0.00,WeatherDisplay:10.37,2013-08-19 02:45:00,
2013-08-18 22:50:00,61.9,58.3,30.00,SSE,149,0.0,0.0,88,0.00,CLR,,0.00,WeatherDisplay:10.37,2013-08-19 02:50:00,
2013-08-18 23:00:00,61.7,58.1,30.00,SSE,154,0.0,0.0,88,0.00,CLR,,0.00,WeatherDisplay:10.37,2013-08-19 03:00:00,
2013-08-18 23:05:00,61.5,57.9,30.00,SSE,164,0.0,0.0,88,0.00,CLR,,0.00,WeatherDisplay:10.37,2013-08-19 03:05:00,
2013-08-18 23:10:00,61.5,58.2,30.00,SSE,150,0.0,0.0,89,0.00,CLR,,0.00,WeatherDisplay:10.37,2013-08-19 03:10:00,
2013-08-18 23:15:00,61.3,58.1,30.00,SSE,157,0.0,0.0,89,0.00,CLR,,0.00,WeatherDisplay:10.37,2013-08-19 03:15:00,
2013-08-18 23:20:00,61.3,58.1,30.00,South,188,0.0,0.0,89,0.00,CLR,,0.00,WeatherDisplay:10.37,2013-08-19 03:20:00,
2013-08-18 23:25:00,61.3,58.0,30.00,South,177,0.0,0.0,89,0.00,CLR,,0.00,WeatherDisplay:10.37,2013-08-19 03:25:00,
2013-08-18 23:30:00,61.2,57.9,30.00,SSE,168,0.0,0.0,89,0.00,CLR,,0.00,WeatherDisplay:10.37,2013-08-19 03:30:00,
2013-08-18 23:35:00,61.0,57.7,30.00,SSW,194,1.0,1.0,89,0.00,CLR,,0.00,WeatherDisplay:10.37,2013-08-19 03:35:00,
2013-08-18 23:40:00,61.0,57.7,30.00,SSE,167,0.0,0.0,89,0.00,CLR,,0.00,WeatherDisplay:10.37,2013-08-19 03:40:00,
2013-08-18 23:50:00,60.8,57.5,30.03,ESE,121,0.0,0.0,89,0.00,CLR,,0.00,WeatherDisplay:10.37,2013-08-19 03:50:00,
2013-08-18 23:55:00,60.8,57.5,30.03,ESE,104,0.0,0.0,89,0.00,CLR,,0.00,WeatherDisplay:10.37,2013-08-19 03:55:00,